Baltic Dart — MFBD8 — position and weather

sailwx.info

Track history (hours):
 
Tides and Currents Weather Stations Pressure Air Temp Water Temp Dewpoint Dewpoint Depression Visibility Wind Speed Wind Dir Waves Ship Positions

Baltic Dart

Last reported at 2018-Feb-11 12:27 UTC. Time now 2018-Feb-21 11:45 UTC.
Position N 28°08' W 015°26'.
Warning: this ship's position is 9 days out of date.

Length 13 m.

Type: Sailing vessel. MMSI: 235115324.

Date/timePositionNaut miles runAvg speedWind from/ knotsBaromVisibWave heightAir tempDewpointWater temp
2018-Feb-11 12:27N 28°08' W 015°26'0 0.6
2018-Feb-11 12:01N 28°08' W 015°25'0 0.0
2018-Feb-10 16:28N 28°08' W 015°26'0 0.0
2018-Feb-10 15:55N 28°08' W 015°26'0 0.0
2018-Feb-10 15:25N 28°08' W 015°26'1 1.6
2018-Feb-10 14:59N 28°08' W 015°25'2 4.1
2018-Feb-10 14:29N 28°07' W 015°23'3 6.1
2018-Feb-10 13:59N 28°07' W 015°19'3 6.2
2018-Feb-10 13:29N 28°07' W 015°16'3 6.6
2018-Feb-10 12:58N 28°07' W 015°12'3 6.8
2018-Feb-10 12:29N 28°06' W 015°08'3 6.5
2018-Feb-10 11:58N 28°06' W 015°04'3 6.5
2018-Feb-10 11:27N 28°05' W 015°01'  
Track history (hours):
 
Tides and Currents Weather Stations Pressure Air Temp Water Temp Dewpoint Dewpoint Depression Visibility Wind Speed Wind Dir Waves Ship Positions

Baltic Dart

Last reported at 2018-Feb-11 12:27 UTC. Time now 2018-Feb-21 11:45 UTC.
Position N 28°08' W 015°26'.
Warning: this ship's position is 9 days out of date.

Length 13 m.

Type: Sailing vessel. MMSI: 235115324.

Date/timePositionNaut miles runAvg speedWind from/ knotsBaromVisibWave heightAir tempDewpointWater temp
2018-Feb-11 12:27N 28°08' W 015°26'0 0.6
2018-Feb-11 12:01N 28°08' W 015°25'0 0.0
2018-Feb-10 16:28N 28°08' W 015°26'0 0.0
2018-Feb-10 15:55N 28°08' W 015°26'0 0.0
2018-Feb-10 15:25N 28°08' W 015°26'1 1.6
2018-Feb-10 14:59N 28°08' W 015°25'2 4.1
2018-Feb-10 14:29N 28°07' W 015°23'3 6.1
2018-Feb-10 13:59N 28°07' W 015°19'3 6.2
2018-Feb-10 13:29N 28°07' W 015°16'3 6.6
2018-Feb-10 12:58N 28°07' W 015°12'3 6.8
2018-Feb-10 12:29N 28°06' W 015°08'3 6.5
2018-Feb-10 11:58N 28°06' W 015°04'3 6.5
2018-Feb-10 11:27N 28°05' W 015°01'  

Dump ship's entire track history